CYQXCYJT

Guest
Details From CYQX - Gander Intl
To CYJT - Stephenville
Flight Number -
Tags Generated
Created
Modified
Stats Distance 160 nm / 296 km
Max Altitude 0 ft / 0 m
Waypoints 2
Social Downloads 1
Likes 0
Share VATSIM

Download

Looking for another format? Having issues loading an existing format? Contact us
Advertisement - Login to hide

Notes

Generated

Route

CYQX CYJT

ID Type Via Altitude Latitude Longitude Leg Dist Tot Dist Heading (true) Name
O CYQX APT - 0 ft / 0 m 48.94339˚ -54.56803˚ - 0 nm - GANDER INTL
O CYJT APT - 0 ft / 0 m 48.53389˚ -58.55250˚ 159 nm 159 nm 263° / 260° -

Altitude Profile

CYQX

Details ICAO CYQX (YQX)
Name GANDER INTL
Region Canada
Timezone America/St_Johns (UTC-2.5)
Stats Elevation 496 ft / 151 m (AMSL)
Location 48.942962° -54.565864°
Runways 3
Magnetic Variation 18.942° W

METAR

CYQX 241200Z 29016KT 20SM FEW090 SCT260 M13/M17 A3004 RMK AC1CI3 CU/SC/HIER AC TR SLP186

Decode

TAF

TAF CYQX 241138Z 2412/2512 30012KT P6SM SCT060 FM241400 30012KT P6SM SCT040 TEMPO 2414/2416 BKN040 BECMG 2422/2424 23008KT FM250600 22012KT P6SM FEW030 BKN120 FM250900 21012KT P6SM -SN FEW030 OVC080 FM251100 21015G25KT 21/2SM -SN BKN015 OVC040 RMK NXT FCST BY 241800Z

Decode

Departure Runways

ID Width Length Bearing (true) Bearing (mag) Surface Threshold Offset Overrun Length
03 200 ft / 61 m 10,230 ft / 3,118 m 10.93° 29.87° Asphalt 0 ft / 0 m 200 ft / 61 m
09 50 ft / 15 m 1,874 ft / 571 m 62.63° 81.57° Asphalt 0 ft / 0 m 75 ft / 23 m
13 200 ft / 61 m 8,855 ft / 2,699 m 107.30° 126.24° Asphalt 0 ft / 0 m 200 ft / 61 m
21 200 ft / 61 m 10,230 ft / 3,118 m 190.94° 209.88° Asphalt 0 ft / 0 m 199 ft / 61 m
27 50 ft / 15 m 1,874 ft / 571 m 242.64° 261.58° Asphalt 0 ft / 0 m 250 ft / 76 m
31 200 ft / 61 m 8,855 ft / 2,699 m 287.33° 306.27° Asphalt 0 ft / 0 m 201 ft / 61 m

CYJT

Details ICAO CYJT (YJT)
Name STEPHENVILLE
Region Canada
Timezone America/St_Johns (UTC-2.5)
Stats Elevation 80 ft / 24 m (AMSL)
Location 48.541811° -58.551488°
Runways 2
Magnetic Variation 19.050° W

METAR

CYJT 241200Z 31013G22KT 15SM BKN022 M09/M15 A3020 RMK SC7 SLP232

Decode

TAF

TAF TAF CYJT 241138Z 2412/2512 31010KT P6SM -SN BKN020 TEMPO 2412/2413 P6SM NSW BKN025 FM241300 31015KT P6SM SCT020 TEMPO 2413/2414 BKN020 BECMG 2419/2421 26012KT FM250000 23012G22KT P6SM SCT030 BKN100 FM250300 23018G28KT P6SM -SN BKN030 OVC080 FM250600 22020G30KT 11/2SM -SN BLSN OVC015 FM250900 22020G30KT 1/2SM SN BLSN VV008 RMK NXT FCST BY 241800Z

Decode

Destination Runways

ID Width Length Bearing (true) Bearing (mag) Surface Threshold Offset Overrun Length
02 150 ft / 46 m 3,770 ft / 1,149 m 355.50° 14.55° Asphalt 0 ft / 0 m 0 ft / 0 m
09 200 ft / 61 m 9,970 ft / 3,039 m 71.61° 90.66° Asphalt 0 ft / 0 m 1,000 ft / 305 m
20 150 ft / 46 m 3,770 ft / 1,149 m 175.50° 194.55° Asphalt 0 ft / 0 m 0 ft / 0 m
27 200 ft / 61 m 9,970 ft / 3,039 m 251.64° 270.69° Asphalt 0 ft / 0 m 1,000 ft / 305 m

Popular Alternatives